Terminal Aerodrome Forecast
Issued by NWS Sioux Falls, SD

Home | Current Version | Previous Version | Graphics & Text | Print | Product List | Glossary On
Versions: 1 2 3 4 5 6 7 8 9 10 11 12 13 14 15
000
FTUS43 KFSD 190528
TAFHON
TAF
KHON 190528Z 1906/2006 07006KT P6SM BKN200
     FM191000 11006KT P6SM SCT025 SCT200
     FM191300 13011KT P6SM SCT035
     FM191900 14012G20KT P6SM SCT060
     FM200000 14008KT P6SM BKN100=

USA.gov is the U.S. government's official web portal to all federal, state and local government web resources and services.